sensor_id;sensor_type;location;lat;lon;timestamp;pressure;altitude;pressure_sealevel;temperature;humidity
22311;BME280;11323;49.610;11.016;2022-09-16T00:04:35;97473.25;;;20.63;55.19
22311;BME280;11323;49.610;11.016;2022-09-16T00:09:36;97476.50;;;20.65;54.78
22311;BME280;11323;49.610;11.016;2022-09-16T00:14:37;97461.53;;;20.59;54.92
22311;BME280;11323;49.610;11.016;2022-09-16T00:19:37;97472.69;;;20.61;55.12
22311;BME280;11323;49.610;11.016;2022-09-16T00:24:38;97473.94;;;20.58;55.08
22311;BME280;11323;49.610;11.016;2022-09-16T00:29:38;97477.41;;;20.59;55.07
22311;BME280;11323;49.610;11.016;2022-09-16T00:34:39;97471.84;;;20.48;55.11
22311;BME280;11323;49.610;11.016;2022-09-16T00:39:39;97487.19;;;20.58;54.74
22311;BME280;11323;49.610;11.016;2022-09-16T00:44:59;97477.84;;;20.56;55.17
22311;BME280;11323;49.610;11.016;2022-09-16T00:50:07;97470.94;;;20.55;54.88
22311;BME280;11323;49.610;11.016;2022-09-16T00:55:15;97477.25;;;20.53;54.98
22311;BME280;11323;49.610;11.016;2022-09-16T01:00:17;97466.09;;;20.51;55.04
22311;BME280;11323;49.610;11.016;2022-09-16T01:05:20;97468.63;;;20.46;55.27
22311;BME280;11323;49.610;11.016;2022-09-16T01:10:23;97459.28;;;20.44;55.20
22311;BME280;11323;49.610;11.016;2022-09-16T01:15:30;97461.72;;;20.45;55.17
22311;BME280;11323;49.610;11.016;2022-09-16T01:26:13;97469.06;;;20.43;54.80
22311;BME280;11323;49.610;11.016;2022-09-16T01:31:42;97464.78;;;20.42;55.26
22311;BME280;11323;49.610;11.016;2022-09-16T01:37:05;97467.88;;;20.39;55.16
22311;BME280;11323;49.610;11.016;2022-09-16T01:42:23;97473.75;;;20.41;55.22
22311;BME280;11323;49.610;11.016;2022-09-16T01:47:55;97453.72;;;20.33;55.30
22311;BME280;11323;49.610;11.016;2022-09-16T01:58:22;97467.19;;;20.32;55.35
22311;BME280;11323;49.610;11.016;2022-09-16T02:03:28;97438.97;;;20.26;55.34
22311;BME280;11323;49.610;11.016;2022-09-16T02:08:39;97458.78;;;20.35;55.27
22311;BME280;11323;49.610;11.016;2022-09-16T02:13:46;97452.75;;;20.28;55.38
22311;BME280;11323;49.610;11.016;2022-09-16T02:18:52;97457.50;;;20.26;55.45
22311;BME280;11323;49.610;11.016;2022-09-16T02:23:59;97472.91;;;20.29;55.46
22311;BME280;11323;49.610;11.016;2022-09-16T02:29:07;97463.16;;;20.29;55.53
22311;BME280;11323;49.610;11.016;2022-09-16T02:34:15;97465.19;;;20.27;55.34
22311;BME280;11323;49.610;11.016;2022-09-16T02:39:23;97463.22;;;20.23;55.52
22311;BME280;11323;49.610;11.016;2022-09-16T02:44:26;97457.13;;;20.22;55.43
22311;BME280;11323;49.610;11.016;2022-09-16T02:55:00;97461.03;;;20.19;55.30
22311;BME280;11323;49.610;11.016;2022-09-16T03:00:03;97466.06;;;20.21;55.54
22311;BME280;11323;49.610;11.016;2022-09-16T03:05:04;97447.78;;;20.19;55.54
22311;BME280;11323;49.610;11.016;2022-09-16T03:10:05;97458.00;;;20.16;55.59
22311;BME280;11323;49.610;11.016;2022-09-16T03:15:35;97462.03;;;20.18;55.44
22311;BME280;11323;49.610;11.016;2022-09-16T03:26:14;97460.91;;;20.14;55.68
22311;BME280;11323;49.610;11.016;2022-09-16T03:31:27;97455.00;;;20.12;55.61
22311;BME280;11323;49.610;11.016;2022-09-16T03:36:32;97460.91;;;20.14;55.58
22311;BME280;11323;49.610;11.016;2022-09-16T03:41:34;97457.06;;;20.10;55.60
22311;BME280;11323;49.610;11.016;2022-09-16T03:46:34;97459.28;;;20.13;55.62
22311;BME280;11323;49.610;11.016;2022-09-16T03:51:35;97455.00;;;20.12;55.52
22311;BME280;11323;49.610;11.016;2022-09-16T03:56:35;97453.84;;;20.08;55.58
22311;BME280;11323;49.610;11.016;2022-09-16T04:01:36;97456.03;;;20.11;55.70
22311;BME280;11323;49.610;11.016;2022-09-16T04:06:36;97445.31;;;20.06;55.45
22311;BME280;11323;49.610;11.016;2022-09-16T04:11:37;97431.38;;;19.99;55.56
22311;BME280;11323;49.610;11.016;2022-09-16T04:16:38;97447.75;;;20.08;55.64
22311;BME280;11323;49.610;11.016;2022-09-16T04:21:39;97441.03;;;20.05;55.67
22311;BME280;11323;49.610;11.016;2022-09-16T04:26:40;97428.50;;;20.00;55.63
22311;BME280;11323;49.610;11.016;2022-09-16T04:31:41;97433.78;;;20.00;55.80
22311;BME280;11323;49.610;11.016;2022-09-16T04:36:42;97436.00;;;20.03;55.76
22311;BME280;11323;49.610;11.016;2022-09-16T04:41:42;97426.31;;;19.97;55.64
22311;BME280;11323;49.610;11.016;2022-09-16T04:46:43;97432.75;;;20.01;55.64
22311;BME280;11323;49.610;11.016;2022-09-16T04:51:43;97421.22;;;19.96;55.70
22311;BME280;11323;49.610;11.016;2022-09-16T04:56:44;97419.75;;;20.00;55.47
22311;BME280;11323;49.610;11.016;2022-09-16T05:01:44;97434.59;;;20.01;55.77
22311;BME280;11323;49.610;11.016;2022-09-16T05:06:45;97433.41;;;19.97;55.64
22311;BME280;11323;49.610;11.016;2022-09-16T05:11:45;97431.69;;;19.90;56.00
22311;BME280;11323;49.610;11.016;2022-09-16T05:16:45;97436.97;;;19.90;55.82
22311;BME280;11323;49.610;11.016;2022-09-16T05:21:46;97429.03;;;19.90;55.65
22311;BME280;11323;49.610;11.016;2022-09-16T05:26:46;97446.50;;;19.92;55.69
22311;BME280;11323;49.610;11.016;2022-09-16T05:31:46;97462.38;;;19.92;55.60
22311;BME280;11323;49.610;11.016;2022-09-16T05:36:47;97455.91;;;19.87;55.59
22311;BME280;11323;49.610;11.016;2022-09-16T05:41:52;97453.84;;;19.89;55.71
22311;BME280;11323;49.610;11.016;2022-09-16T05:46:53;97462.59;;;19.90;55.70
22311;BME280;11323;49.610;11.016;2022-09-16T05:51:53;97457.53;;;19.88;55.81
22311;BME280;11323;49.610;11.016;2022-09-16T05:56:54;97464.88;;;19.86;55.84
22311;BME280;11323;49.610;11.016;2022-09-16T06:01:54;97452.88;;;19.84;55.63
22311;BME280;11323;49.610;11.016;2022-09-16T06:06:55;97465.72;;;19.80;55.77
22311;BME280;11323;49.610;11.016;2022-09-16T06:11:56;97465.88;;;19.85;55.75
22311;BME280;11323;49.610;11.016;2022-09-16T06:16:56;97469.53;;;19.84;55.52
22311;BME280;11323;49.610;11.016;2022-09-16T06:21:57;97459.63;;;19.80;55.62
22311;BME280;11323;49.610;11.016;2022-09-16T06:26:57;97454.69;;;19.83;55.70
22311;BME280;11323;49.610;11.016;2022-09-16T06:31:57;97462.84;;;19.82;55.89
22311;BME280;11323;49.610;11.016;2022-09-16T06:36:58;97448.69;;;19.76;55.89
22311;BME280;11323;49.610;11.016;2022-09-16T06:41:58;97456.38;;;19.78;55.99
22311;BME280;11323;49.610;11.016;2022-09-16T06:47:13;97465.13;;;19.78;55.54
22311;BME280;11323;49.610;11.016;2022-09-16T06:52:13;97459.63;;;19.80;55.66
22311;BME280;11323;49.610;11.016;2022-09-16T06:57:14;97472.41;;;19.64;55.85
22311;BME280;11323;49.610;11.016;2022-09-16T07:02:14;97475.53;;;19.54;57.66
22311;BME280;11323;49.610;11.016;2022-09-16T07:07:15;97456.44;;;19.34;56.26
22311;BME280;11323;49.610;11.016;2022-09-16T07:12:15;97462.69;;;19.14;54.87
22311;BME280;11323;49.610;11.016;2022-09-16T07:17:15;97450.53;;;19.13;54.76
22311;BME280;11323;49.610;11.016;2022-09-16T07:22:16;97467.75;;;19.41;54.55
22311;BME280;11323;49.610;11.016;2022-09-16T07:27:16;97454.25;;;19.49;54.28
22311;BME280;11323;49.610;11.016;2022-09-16T07:32:17;97470.50;;;19.53;54.59
22311;BME280;11323;49.610;11.016;2022-09-16T07:37:17;97471.28;;;19.53;54.68
22311;BME280;11323;49.610;11.016;2022-09-16T07:42:19;97460.72;;;19.53;54.57
22311;BME280;11323;49.610;11.016;2022-09-16T07:47:19;97465.72;;;19.62;54.67
22311;BME280;11323;49.610;11.016;2022-09-16T07:52:21;97463.00;;;19.68;54.37
22311;BME280;11323;49.610;11.016;2022-09-16T07:57:22;97459.41;;;19.63;54.52
22311;BME280;11323;49.610;11.016;2022-09-16T08:02:23;97467.50;;;19.68;54.63
22311;BME280;11323;49.610;11.016;2022-09-16T08:07:23;97468.88;;;19.70;54.61
22311;BME280;11323;49.610;11.016;2022-09-16T08:12:23;97470.72;;;19.70;54.62
22311;BME280;11323;49.610;11.016;2022-09-16T08:17:25;97458.53;;;19.69;54.77
22311;BME280;11323;49.610;11.016;2022-09-16T08:22:25;97474.41;;;19.69;54.64
22311;BME280;11323;49.610;11.016;2022-09-16T08:27:26;97487.97;;;19.72;55.29
22311;BME280;11323;49.610;11.016;2022-09-16T08:32:27;97476.38;;;19.73;55.53
22311;BME280;11323;49.610;11.016;2022-09-16T08:37:27;97478.50;;;19.65;55.64
22311;BME280;11323;49.610;11.016;2022-09-16T08:53:34;97482.47;;;19.74;55.56
22311;BME280;11323;49.610;11.016;2022-09-16T08:58:41;97476.56;;;19.72;55.37
22311;BME280;11323;49.610;11.016;2022-09-16T09:03:45;97480.03;;;19.72;55.38
22311;BME280;11323;49.610;11.016;2022-09-16T09:09:13;97480.72;;;19.68;55.23
22311;BME280;11323;49.610;11.016;2022-09-16T09:14:25;97477.59;;;19.71;55.41
22311;BME280;11323;49.610;11.016;2022-09-16T09:30:21;97476.31;;;19.80;55.15
22311;BME280;11323;49.610;11.016;2022-09-16T09:41:29;97460.41;;;19.87;54.96
22311;BME280;11323;49.610;11.016;2022-09-16T09:46:44;97461.59;;;19.84;54.84
22311;BME280;11323;49.610;11.016;2022-09-16T09:51:59;97459.19;;;19.83;54.87
22311;BME280;11323;49.610;11.016;2022-09-16T09:57:12;97469.38;;;19.86;54.73
22311;BME280;11323;49.610;11.016;2022-09-16T10:02:18;97484.38;;;19.85;54.82
22311;BME280;11323;49.610;11.016;2022-09-16T10:07:22;97468.94;;;19.82;54.76
22311;BME280;11323;49.610;11.016;2022-09-16T10:12:31;97469.75;;;19.83;54.69
22311;BME280;11323;49.610;11.016;2022-09-16T10:17:32;97457.81;;;19.80;55.31
22311;BME280;11323;49.610;11.016;2022-09-16T10:22:34;97464.88;;;19.86;55.21
22311;BME280;11323;49.610;11.016;2022-09-16T10:27:36;97457.13;;;19.85;54.91
22311;BME280;11323;49.610;11.016;2022-09-16T10:32:49;97448.63;;;19.83;54.84
22311;BME280;11323;49.610;11.016;2022-09-16T10:38:13;97437.22;;;19.82;54.92
22311;BME280;11323;49.610;11.016;2022-09-16T10:43:17;97434.81;;;19.81;55.00
22311;BME280;11323;49.610;11.016;2022-09-16T10:48:26;97420.50;;;19.70;55.36
22311;BME280;11323;49.610;11.016;2022-09-16T10:53:35;97439.84;;;19.82;55.05
22311;BME280;11323;49.610;11.016;2022-09-16T10:58:35;97434.44;;;19.77;55.18
22311;BME280;11323;49.610;11.016;2022-09-16T11:08:58;97446.06;;;19.95;55.14
22311;BME280;11323;49.610;11.016;2022-09-16T11:14:15;97451.94;;;19.97;55.11
22311;BME280;11323;49.610;11.016;2022-09-16T11:19:39;97449.88;;;19.99;55.24
22311;BME280;11323;49.610;11.016;2022-09-16T11:30:03;97455.31;;;20.04;55.29
22311;BME280;11323;49.610;11.016;2022-09-16T11:40:33;97452.97;;;19.96;55.10
22311;BME280;11323;49.610;11.016;2022-09-16T11:45:47;97436.38;;;19.88;55.20
22311;BME280;11323;49.610;11.016;2022-09-16T11:56:13;97445.03;;;19.96;54.91
22311;BME280;11323;49.610;11.016;2022-09-16T12:01:29;97444.44;;;19.94;55.00
22311;BME280;11323;49.610;11.016;2022-09-16T12:06:39;97423.78;;;19.84;54.99
22311;BME280;11323;49.610;11.016;2022-09-16T12:11:47;97428.56;;;19.94;55.17
22311;BME280;11323;49.610;11.016;2022-09-16T12:17:00;97410.41;;;19.79;54.87
22311;BME280;11323;49.610;11.016;2022-09-16T12:22:08;97419.16;;;19.79;54.95
22311;BME280;11323;49.610;11.016;2022-09-16T12:27:31;97418.50;;;19.84;54.94
22311;BME280;11323;49.610;11.016;2022-09-16T12:32:48;97428.69;;;19.87;55.00
22311;BME280;11323;49.610;11.016;2022-09-16T12:37:51;97408.38;;;19.81;54.97
22311;BME280;11323;49.610;11.016;2022-09-16T12:48:59;97406.97;;;19.78;54.91
22311;BME280;11323;49.610;11.016;2022-09-16T12:59:49;97398.59;;;19.81;54.80
22311;BME280;11323;49.610;11.016;2022-09-16T13:04:55;97384.34;;;19.82;56.04
22311;BME280;11323;49.610;11.016;2022-09-16T13:10:16;97383.72;;;19.87;55.57
22311;BME280;11323;49.610;11.016;2022-09-16T13:15:31;97383.06;;;19.92;55.34
22311;BME280;11323;49.610;11.016;2022-09-16T13:20:36;97372.59;;;19.97;55.54
22311;BME280;11323;49.610;11.016;2022-09-16T13:25:49;97359.81;;;19.94;55.43
22311;BME280;11323;49.610;11.016;2022-09-16T13:30:53;97348.44;;;19.93;55.76
22311;BME280;11323;49.610;11.016;2022-09-16T13:41:30;97370.22;;;20.07;55.17
22311;BME280;11323;49.610;11.016;2022-09-16T13:46:35;97373.00;;;20.12;55.07
22311;BME280;11323;49.610;11.016;2022-09-16T13:51:43;97358.75;;;20.13;55.11
22311;BME280;11323;49.610;11.016;2022-09-16T13:57:02;97369.44;;;20.18;54.89
22311;BME280;11323;49.610;11.016;2022-09-16T14:17:57;97352.81;;;20.30;54.66
22311;BME280;11323;49.610;11.016;2022-09-16T14:23:16;97338.53;;;20.31;54.69
22311;BME280;11323;49.610;11.016;2022-09-16T14:28:19;97345.59;;;20.37;54.47
22311;BME280;11323;49.610;11.016;2022-09-16T14:33:36;97352.94;;;20.35;54.36
22311;BME280;11323;49.610;11.016;2022-09-16T14:38:42;97347.97;;;20.27;54.63
22311;BME280;11323;49.610;11.016;2022-09-16T14:43:44;97343.72;;;20.26;54.78
22311;BME280;11323;49.610;11.016;2022-09-16T14:48:44;97355.44;;;20.30;54.61
22311;BME280;11323;49.610;11.016;2022-09-16T14:53:53;97349.38;;;20.29;54.62
22311;BME280;11323;49.610;11.016;2022-09-16T14:58:56;97348.34;;;20.30;54.73
22311;BME280;11323;49.610;11.016;2022-09-16T15:04:05;97318.41;;;20.18;54.39
22311;BME280;11323;49.610;11.016;2022-09-16T15:09:41;97351.78;;;20.31;54.38
22311;BME280;11323;49.610;11.016;2022-09-16T15:14:42;97326.53;;;20.16;54.53
22311;BME280;11323;49.610;11.016;2022-09-16T15:19:57;97341.09;;;20.26;55.03
22311;BME280;11323;49.610;11.016;2022-09-16T15:24:58;97335.19;;;20.24;55.18
22311;BME280;11323;49.610;11.016;2022-09-16T15:30:00;97341.19;;;20.31;55.25
22311;BME280;11323;49.610;11.016;2022-09-16T15:35:15;97344.16;;;20.23;55.33
22311;BME280;11323;49.610;11.016;2022-09-16T15:40:19;97349.13;;;20.31;55.50
22311;BME280;11323;49.610;11.016;2022-09-16T15:45:20;97332.22;;;20.20;55.20
22311;BME280;11323;49.610;11.016;2022-09-16T15:50:20;97346.13;;;20.27;54.91
22311;BME280;11323;49.610;11.016;2022-09-16T15:55:36;97355.91;;;20.27;54.81
22311;BME280;11323;49.610;11.016;2022-09-16T16:01:06;97357.41;;;20.23;55.02
22311;BME280;11323;49.610;11.016;2022-09-16T16:06:08;97372.28;;;20.05;54.82
22311;BME280;11323;49.610;11.016;2022-09-16T16:11:20;97392.13;;;20.14;54.75
22311;BME280;11323;49.610;11.016;2022-09-16T16:16:21;97387.28;;;20.11;54.81
22311;BME280;11323;49.610;11.016;2022-09-16T16:21:21;97377.44;;;20.00;55.17
22311;BME280;11323;49.610;11.016;2022-09-16T16:26:22;97372.75;;;20.02;55.67
22311;BME280;11323;49.610;11.016;2022-09-16T16:31:23;97389.31;;;20.09;56.02
22311;BME280;11323;49.610;11.016;2022-09-16T16:36:24;97375.16;;;20.03;56.05
22311;BME280;11323;49.610;11.016;2022-09-16T16:41:24;97394.75;;;20.14;56.07
22311;BME280;11323;49.610;11.016;2022-09-16T16:46:24;97404.75;;;20.12;55.88
22311;BME280;11323;49.610;11.016;2022-09-16T16:51:26;97378.47;;;19.99;56.25
22311;BME280;11323;49.610;11.016;2022-09-16T16:56:27;97396.66;;;20.07;56.04
22311;BME280;11323;49.610;11.016;2022-09-16T17:01:27;97392.63;;;20.04;56.66
22311;BME280;11323;49.610;11.016;2022-09-16T17:06:31;97391.47;;;20.00;56.57
22311;BME280;11323;49.610;11.016;2022-09-16T17:11:32;97405.06;;;20.04;56.50
22311;BME280;11323;49.610;11.016;2022-09-16T17:16:33;97415.78;;;20.09;56.56
22311;BME280;11323;49.610;11.016;2022-09-16T17:21:35;97412.19;;;20.03;56.21
22311;BME280;11323;49.610;11.016;2022-09-16T17:26:36;97418.28;;;20.04;56.38
22311;BME280;11323;49.610;11.016;2022-09-16T17:31:36;97425.75;;;20.07;56.67
22311;BME280;11323;49.610;11.016;2022-09-16T17:36:45;97423.44;;;19.99;56.76
22311;BME280;11323;49.610;11.016;2022-09-16T17:41:46;97430.34;;;20.00;56.38
22311;BME280;11323;49.610;11.016;2022-09-16T17:46:50;97441.50;;;20.02;56.65
22311;BME280;11323;49.610;11.016;2022-09-16T17:51:51;97444.28;;;20.07;56.55
22311;BME280;11323;49.610;11.016;2022-09-16T17:56:52;97446.34;;;20.05;56.52
22311;BME280;11323;49.610;11.016;2022-09-16T18:01:53;97445.19;;;20.01;56.63
22311;BME280;11323;49.610;11.016;2022-09-16T18:06:53;97436.06;;;19.97;56.19
22311;BME280;11323;49.610;11.016;2022-09-16T18:11:53;97456.34;;;20.03;55.72
22311;BME280;11323;49.610;11.016;2022-09-16T18:16:54;97443.63;;;19.93;55.73
22311;BME280;11323;49.610;11.016;2022-09-16T18:21:55;97456.19;;;19.98;55.77
22311;BME280;11323;49.610;11.016;2022-09-16T18:26:55;97458.25;;;19.96;55.79
22311;BME280;11323;49.610;11.016;2022-09-16T18:31:56;97455.00;;;19.94;55.54
22311;BME280;11323;49.610;11.016;2022-09-16T18:36:57;97459.59;;;19.86;55.64
22311;BME280;11323;49.610;11.016;2022-09-16T18:41:58;97458.81;;;19.79;55.67
22311;BME280;11323;49.610;11.016;2022-09-16T18:46:58;97463.66;;;19.82;55.36
22311;BME280;11323;49.610;11.016;2022-09-16T18:51:59;97475.84;;;19.83;55.70
22311;BME280;11323;49.610;11.016;2022-09-16T18:56:59;97472.19;;;19.84;55.61
22311;BME280;11323;49.610;11.016;2022-09-16T19:02:01;97464.47;;;19.83;55.58
22311;BME280;11323;49.610;11.016;2022-09-16T19:07:05;97461.91;;;19.76;55.38
22311;BME280;11323;49.610;11.016;2022-09-16T19:12:10;97465.94;;;19.79;55.80
22311;BME280;11323;49.610;11.016;2022-09-16T19:17:10;97461.19;;;19.87;55.41
22311;BME280;11323;49.610;11.016;2022-09-16T19:22:11;97432.97;;;19.81;55.17
22311;BME280;11323;49.610;11.016;2022-09-16T19:27:12;97461.34;;;20.11;55.08
22311;BME280;11323;49.610;11.016;2022-09-16T19:32:12;97463.31;;;20.16;54.21
22311;BME280;11323;49.610;11.016;2022-09-16T19:37:13;97467.25;;;20.25;54.45
22311;BME280;11323;49.610;11.016;2022-09-16T19:42:14;97476.41;;;20.41;54.00
22311;BME280;11323;49.610;11.016;2022-09-16T19:47:14;97473.56;;;20.43;53.70
22311;BME280;11323;49.610;11.016;2022-09-16T19:52:15;97484.25;;;20.48;53.57
22311;BME280;11323;49.610;11.016;2022-09-16T19:57:15;97487.19;;;20.58;53.41
22311;BME280;11323;49.610;11.016;2022-09-16T20:02:15;97493.56;;;20.69;53.20
22311;BME280;11323;49.610;11.016;2022-09-16T20:07:16;97496.34;;;20.74;52.70
22311;BME280;11323;49.610;11.016;2022-09-16T20:12:17;97476.06;;;20.68;52.93
22311;BME280;11323;49.610;11.016;2022-09-16T20:17:18;97481.63;;;20.78;52.54
22311;BME280;11323;49.610;11.016;2022-09-16T20:22:18;97487.19;;;20.89;52.54
22311;BME280;11323;49.610;11.016;2022-09-16T20:27:19;97495.28;;;20.94;52.74
22311;BME280;11323;49.610;11.016;2022-09-16T20:32:19;97496.84;;;20.95;52.37
22311;BME280;11323;49.610;11.016;2022-09-16T20:37:19;97495.38;;;20.99;52.15
22311;BME280;11323;49.610;11.016;2022-09-16T20:42:20;97502.88;;;21.02;52.15
22311;BME280;11323;49.610;11.016;2022-09-16T20:47:21;97485.56;;;20.88;52.25
22311;BME280;11323;49.610;11.016;2022-09-16T20:52:21;97498.38;;;20.91;51.88
22311;BME280;11323;49.610;11.016;2022-09-16T20:57:22;97499.16;;;20.91;52.42
22311;BME280;11323;49.610;11.016;2022-09-16T21:02:22;97508.09;;;21.09;51.97
22311;BME280;11323;49.610;11.016;2022-09-16T21:07:22;97516.25;;;21.07;52.19
22311;BME280;11323;49.610;11.016;2022-09-16T21:12:23;97516.34;;;21.01;51.98
22311;BME280;11323;49.610;11.016;2022-09-16T21:17:23;97523.63;;;21.05;52.31
22311;BME280;11323;49.610;11.016;2022-09-16T21:22:23;97532.97;;;21.08;52.05
22311;BME280;11323;49.610;11.016;2022-09-16T21:27:24;97528.44;;;21.08;52.10
22311;BME280;11323;49.610;11.016;2022-09-16T21:32:24;97519.22;;;20.99;51.88
22311;BME280;11323;49.610;11.016;2022-09-16T21:37:25;97530.06;;;21.09;51.95
22311;BME280;11323;49.610;11.016;2022-09-16T21:42:25;97520.66;;;21.13;51.57
22311;BME280;11323;49.610;11.016;2022-09-16T21:47:26;97535.63;;;21.20;51.68
22311;BME280;11323;49.610;11.016;2022-09-16T21:52:26;97547.13;;;21.13;51.93
22311;BME280;11323;49.610;11.016;2022-09-16T21:57:26;97550.00;;;21.12;52.09
22311;BME280;11323;49.610;11.016;2022-09-16T22:02:28;97545.44;;;21.19;51.76
22311;BME280;11323;49.610;11.016;2022-09-16T22:07:29;97534.91;;;21.12;51.68
22311;BME280;11323;49.610;11.016;2022-09-16T22:12:29;97547.13;;;21.13;52.15
22311;BME280;11323;49.610;11.016;2022-09-16T22:17:30;97541.41;;;21.17;51.56
22311;BME280;11323;49.610;11.016;2022-09-16T22:22:30;97547.84;;;21.21;51.70
22311;BME280;11323;49.610;11.016;2022-09-16T22:27:31;97544.81;;;21.05;51.68
22311;BME280;11323;49.610;11.016;2022-09-16T22:32:32;97540.56;;;21.16;51.71
22311;BME280;11323;49.610;11.016;2022-09-16T22:37:32;97545.84;;;21.04;51.77
22311;BME280;11323;49.610;11.016;2022-09-16T22:42:32;97534.63;;;20.90;52.26
22311;BME280;11323;49.610;11.016;2022-09-16T22:47:33;97527.94;;;20.88;52.28
22311;BME280;11323;49.610;11.016;2022-09-16T22:52:33;97543.13;;;20.80;52.56
22311;BME280;11323;49.610;11.016;2022-09-16T22:57:34;97538.84;;;20.61;52.88
22311;BME280;11323;49.610;11.016;2022-09-16T23:02:34;97543.00;;;20.57;53.07
22311;BME280;11323;49.610;11.016;2022-09-16T23:07:34;97558.72;;;20.51;52.88
22311;BME280;11323;49.610;11.016;2022-09-16T23:12:35;97550.16;;;20.37;53.31
22311;BME280;11323;49.610;11.016;2022-09-16T23:17:35;97548.69;;;20.42;53.21
22311;BME280;11323;49.610;11.016;2022-09-16T23:22:35;97551.78;;;20.39;52.97
22311;BME280;11323;49.610;11.016;2022-09-16T23:27:36;97535.38;;;20.30;53.12
22311;BME280;11323;49.610;11.016;2022-09-16T23:32:36;97547.75;;;20.36;53.27
22311;BME280;11323;49.610;11.016;2022-09-16T23:37:37;97530.63;;;20.20;53.26
22311;BME280;11323;49.610;11.016;2022-09-16T23:42:37;97546.69;;;20.18;53.57
22311;BME280;11323;49.610;11.016;2022-09-16T23:47:37;97545.91;;;20.18;53.67
22311;BME280;11323;49.610;11.016;2022-09-16T23:52:38;97550.00;;;20.14;53.66
22311;BME280;11323;49.610;11.016;2022-09-16T23:57:39;97539.56;;;20.00;53.82
